Pede Vento — CRLZ9 — position and weather

sailwx.info

Track history (hours):
 
Tides and Currents Weather Stations Pressure Air Temp Water Temp Dewpoint Dewpoint Depression Visibility Wind Speed Wind Dir Waves Ship Positions

Pede Vento

Last reported at 2015-Jun-28 16:32 UTC. Time now 2015-Jun-30 09:59 UTC.
Position N 38°42' W 009°13'.

Length 12 m.

Type: Sailing vessel. MMSI: 263819560.

Date/timePositionNaut miles runAvg speedWind from/ knotsBaromVisibWave heightAir tempDewpointWater temp
2015-Jun-28 16:32N 38°42' W 009°13'5 5.3
2015-Jun-28 15:33N 38°40' W 009°19'5 4.4
2015-Jun-28 14:26N 38°41' W 009°25'1 0.6
2015-Jun-28 13:33N 38°41' W 009°25'2 1.7
2015-Jun-28 12:32N 38°40' W 009°26'1 0.8
2015-Jun-28 11:33N 38°41' W 009°26'1 1.2
2015-Jun-28 10:33N 38°41' W 009°25'0 0.0
2015-Jun-27 15:33N 38°41' W 009°25'1 1.2
2015-Jun-27 14:33N 38°40' W 009°26'1 1.0
2015-Jun-27 13:15N 38°39' W 009°25'2 2.3
2015-Jun-27 12:14N 38°42' W 009°25'0 0.1
2015-Jun-27 11:32N 38°42' W 009°25'0 0.0
2015-Jun-26 17:30N 38°41' W 009°25'3 2.9
2015-Jun-26 16:25N 38°41' W 009°21'6 2.5
2015-Jun-26 14:09N 38°42' W 009°14'  
2015-Jun-21 12:28N 38°41' W 009°11'2 1.7
2015-Jun-21 11:33N 38°41' W 009°13'  
Track history (hours):
 
Tides and Currents Weather Stations Pressure Air Temp Water Temp Dewpoint Dewpoint Depression Visibility Wind Speed Wind Dir Waves Ship Positions

Pede Vento

Last reported at 2015-Jun-28 16:32 UTC. Time now 2015-Jun-30 09:59 UTC.
Position N 38°42' W 009°13'.

Length 12 m.

Type: Sailing vessel. MMSI: 263819560.

Date/timePositionNaut miles runAvg speedWind from/ knotsBaromVisibWave heightAir tempDewpointWater temp
2015-Jun-28 16:32N 38°42' W 009°13'5 5.3
2015-Jun-28 15:33N 38°40' W 009°19'5 4.4
2015-Jun-28 14:26N 38°41' W 009°25'1 0.6
2015-Jun-28 13:33N 38°41' W 009°25'2 1.7
2015-Jun-28 12:32N 38°40' W 009°26'1 0.8
2015-Jun-28 11:33N 38°41' W 009°26'1 1.2
2015-Jun-28 10:33N 38°41' W 009°25'0 0.0
2015-Jun-27 15:33N 38°41' W 009°25'1 1.2
2015-Jun-27 14:33N 38°40' W 009°26'1 1.0
2015-Jun-27 13:15N 38°39' W 009°25'2 2.3
2015-Jun-27 12:14N 38°42' W 009°25'0 0.1
2015-Jun-27 11:32N 38°42' W 009°25'0 0.0
2015-Jun-26 17:30N 38°41' W 009°25'3 2.9
2015-Jun-26 16:25N 38°41' W 009°21'6 2.5
2015-Jun-26 14:09N 38°42' W 009°14'  
2015-Jun-21 12:28N 38°41' W 009°11'2 1.7
2015-Jun-21 11:33N 38°41' W 009°13'  

Dump ship's entire track history